Pagina principale
METAR-TAF:

METAR-TAF

Aeroporti :

Aeroporto di Amendola

Foggia, Italia

latitudine: 41-32N, longitudine: 015-43E, altezza: 57 m

Osservazione

Il bollettino è stato emesso 40 minuti fa, alle 10:55 UTC
Vento 7 kt da est/nord-est
Temperature 25°C
Umidità 34%
Pressione 1026 hPa
Visibilità 10 km o più
nessuna nube inferiore a 1500 m e nessun cumulonembo

METAR: LIBA 191055Z 07007KT CAVOK 25/08 Q1026

Ora: 13:35 (11:35 UTC)

Previsione

Il bollettino è stato emesso 3 ore e 35 minuti fa, alle 08:00 UTC
Previsione valida dal 19 alle 09 UTC al 19 alle 18 UTC
Vento 10 kt da ovest
Visibilità 10 km o più
nessuna nube inferiore a 1500 m e nessun cumulonembo
Evoluzione graduale
dal 19 alle 10 UTC al 19 alle 12 UTC
Vento 15 kt da est
Visibilità 10 km o più
Poco nuvoloso ad un'altezza di 4000 ft

TAF: LIBA 190800Z 1909/1918 27010KT CAVOK BECMG 1910/1912 09015KT 9999 FEW040

Osservazioni e previsioni meteorologiche di più di 4000 aeroporti (messaggi METAR e TAF).

Le stazioni disponibili sono rappresentate dai dischi gialli e rossi sulla carta.

Puntare il mouse per vedere il nome della stazione.

Clicca sopra per visualizzare le osservazioni e previsioni meteorologiche.

Per cambiare la mappa : fare clic sui pulsanti verdi con una croce nera per ingrandire, il pulsante verde con un trattino per diminuire, o sulla freccia verde per le mappe adiacenti.


METAR-TAF: